sensor_id;sensor_type;location;lat;lon;timestamp;pressure;altitude;pressure_sealevel;temperature;humidity
48352;BME280;34163;49.314;6.752;2023-05-21T18:05:01;99194.19;;;11.39;100.00
48352;BME280;34163;49.314;6.752;2023-05-21T18:07:29;99209.91;;;7.71;100.00
48352;BME280;34163;49.314;6.752;2023-05-21T18:10:22;99215.50;;;7.40;100.00
48352;BME280;34163;49.314;6.752;2023-05-21T18:12:47;99213.88;;;6.90;100.00
48352;BME280;34163;49.314;6.752;2023-05-21T18:15:12;99217.91;;;6.77;100.00
48352;BME280;34163;49.314;6.752;2023-05-21T18:17:37;99219.13;;;6.66;100.00
48352;BME280;34163;49.314;6.752;2023-05-21T18:20:03;99222.91;;;6.59;100.00
48352;BME280;34163;49.314;6.752;2023-05-21T18:22:28;99220.22;;;6.61;100.00
48352;BME280;34163;49.314;6.752;2023-05-21T18:24:54;99210.75;;;6.55;100.00
48352;BME280;34163;49.314;6.752;2023-05-21T18:27:19;99216.97;;;6.52;100.00
48352;BME280;34163;49.314;6.752;2023-05-21T18:29:45;99221.19;;;6.58;100.00
48352;BME280;34163;49.314;6.752;2023-05-21T18:32:12;99214.41;;;6.51;100.00
48352;BME280;34163;49.314;6.752;2023-05-21T18:34:39;99220.69;;;6.47;100.00
48352;BME280;34163;49.314;6.752;2023-05-21T18:37:06;99214.47;;;6.49;100.00
48352;BME280;34163;49.314;6.752;2023-05-21T18:39:31;99214.34;;;6.52;100.00
48352;BME280;34163;49.314;6.752;2023-05-21T18:41:57;99213.91;;;6.40;100.00
48352;BME280;34163;49.314;6.752;2023-05-21T18:44:22;99217.16;;;6.48;100.00
48352;BME280;34163;49.314;6.752;2023-05-21T18:46:48;99222.47;;;6.46;100.00
48352;BME280;34163;49.314;6.752;2023-05-21T18:49:13;99220.91;;;6.41;100.00
48352;BME280;34163;49.314;6.752;2023-05-21T18:51:38;99217.53;;;6.37;100.00
48352;BME280;34163;49.314;6.752;2023-05-21T18:54:04;99213.56;;;6.50;100.00
48352;BME280;34163;49.314;6.752;2023-05-21T18:56:29;99221.72;;;6.43;100.00
48352;BME280;34163;49.314;6.752;2023-05-21T18:58:54;99224.19;;;6.47;100.00
48352;BME280;34163;49.314;6.752;2023-05-21T19:01:20;99221.81;;;6.40;100.00
48352;BME280;34163;49.314;6.752;2023-05-21T19:03:45;99221.81;;;6.40;100.00
48352;BME280;34163;49.314;6.752;2023-05-21T19:06:10;99229.66;;;6.41;100.00
48352;BME280;34163;49.314;6.752;2023-05-21T19:08:35;99226.22;;;6.39;100.00
48352;BME280;34163;49.314;6.752;2023-05-21T19:11:01;99230.69;;;6.37;100.00
48352;BME280;34163;49.314;6.752;2023-05-21T19:13:26;99228.81;;;6.41;100.00
48352;BME280;34163;49.314;6.752;2023-05-21T19:15:51;99230.69;;;6.37;100.00
48352;BME280;34163;49.314;6.752;2023-05-21T19:18:21;99226.28;;;6.38;100.00
48352;BME280;34163;49.314;6.752;2023-05-21T19:20:46;99229.41;;;6.49;100.00
48352;BME280;34163;49.314;6.752;2023-05-21T19:23:11;99237.41;;;6.46;100.00
48352;BME280;34163;49.314;6.752;2023-05-21T19:25:36;99229.28;;;6.52;100.00
48352;BME280;34163;49.314;6.752;2023-05-21T19:28:02;99237.13;;;6.53;100.00
48352;BME280;34163;49.314;6.752;2023-05-21T19:30:27;99239.28;;;6.42;100.00
48352;BME280;34163;49.314;6.752;2023-05-21T19:32:53;99243.34;;;6.51;100.00
48352;BME280;34163;49.314;6.752;2023-05-21T19:35:19;99235.69;;;6.45;100.00
48352;BME280;34163;49.314;6.752;2023-05-21T19:37:44;99240.41;;;6.60;100.00
48352;BME280;34163;49.314;6.752;2023-05-21T19:40:09;99233.34;;;6.62;100.00
48352;BME280;34163;49.314;6.752;2023-05-21T19:42:35;99243.34;;;6.51;100.00
48352;BME280;34163;49.314;6.752;2023-05-21T19:45:00;99240.22;;;6.40;100.00
48352;BME280;34163;49.314;6.752;2023-05-21T19:47:26;99244.50;;;6.44;100.00
48352;BME280;34163;49.314;6.752;2023-05-21T19:49:51;99260.19;;;6.47;100.00
48352;BME280;34163;49.314;6.752;2023-05-21T19:52:17;99250.91;;;6.35;100.00
48352;BME280;34163;49.314;6.752;2023-05-21T19:54:42;99247.22;;;6.41;100.00
48352;BME280;34163;49.314;6.752;2023-05-21T19:57:08;99256.66;;;6.48;100.00
48352;BME280;34163;49.314;6.752;2023-05-21T19:59:33;99256.06;;;6.38;100.00
48352;BME280;34163;49.314;6.752;2023-05-21T20:01:58;99262.22;;;6.39;100.00
48352;BME280;34163;49.314;6.752;2023-05-21T20:04:24;99256.66;;;6.48;100.00
48352;BME280;34163;49.314;6.752;2023-05-21T20:06:49;99267.47;;;6.39;100.00
48352;BME280;34163;49.314;6.752;2023-05-21T20:09:15;99263.91;;;6.40;100.00
48352;BME280;34163;49.314;6.752;2023-05-21T20:11:42;99273.59;;;6.39;100.00
48352;BME280;34163;49.314;6.752;2023-05-21T20:14:07;99264.84;;;6.39;100.00
48352;BME280;34163;49.314;6.752;2023-05-21T20:16:32;99272.84;;;6.35;100.00
48352;BME280;34163;49.314;6.752;2023-05-21T20:18:58;99272.53;;;6.45;100.00
48352;BME280;34163;49.314;6.752;2023-05-21T20:21:25;99275.97;;;6.47;100.00
48352;BME280;34163;49.314;6.752;2023-05-21T20:23:51;99273.44;;;6.44;100.00
48352;BME280;34163;49.314;6.752;2023-05-21T20:26:16;99275.28;;;6.42;100.00
48352;BME280;34163;49.314;6.752;2023-05-21T20:28:45;99279.31;;;6.52;100.00
48352;BME280;34163;49.314;6.752;2023-05-21T20:31:11;99279.34;;;6.50;100.00
48352;BME280;34163;49.314;6.752;2023-05-21T20:33:36;99283.06;;;6.45;100.00
48352;BME280;34163;49.314;6.752;2023-05-21T20:36:01;99268.88;;;6.49;100.00
48352;BME280;34163;49.314;6.752;2023-05-21T20:38:27;99276.44;;;6.33;100.00
48352;BME280;34163;49.314;6.752;2023-05-21T20:40:56;99275.44;;;6.37;100.00
48352;BME280;34163;49.314;6.752;2023-05-21T20:43:21;99276.19;;;6.41;100.00
48352;BME280;34163;49.314;6.752;2023-05-21T20:45:48;99279.81;;;6.36;100.00
48352;BME280;34163;49.314;6.752;2023-05-21T20:48:13;99283.06;;;6.45;100.00
48352;BME280;34163;49.314;6.752;2023-05-21T20:50:39;99281.28;;;6.45;100.00
48352;BME280;34163;49.314;6.752;2023-05-21T20:53:06;99275.13;;;6.46;100.00
48352;BME280;34163;49.314;6.752;2023-05-21T20:55:31;99279.56;;;6.44;100.00
48352;BME280;34163;49.314;6.752;2023-05-21T20:58:02;99277.81;;;6.45;100.00
48352;BME280;34163;49.314;6.752;2023-05-21T21:00:27;99279.50;;;6.46;100.00
48352;BME280;34163;49.314;6.752;2023-05-21T21:02:52;99283.78;;;6.50;100.00
48352;BME280;34163;49.314;6.752;2023-05-21T21:05:18;99280.53;;;6.42;100.00
48352;BME280;34163;49.314;6.752;2023-05-21T21:07:44;99281.97;;;6.50;100.00
48352;BME280;34163;49.314;6.752;2023-05-21T21:10:09;99292.06;;;6.38;100.00
48352;BME280;34163;49.314;6.752;2023-05-21T21:12:34;99285.22;;;6.33;100.00
48352;BME280;34163;49.314;6.752;2023-05-21T21:15:00;99295.50;;;6.40;100.00
48352;BME280;34163;49.314;6.752;2023-05-21T21:17:25;99288.53;;;6.39;100.00
48352;BME280;34163;49.314;6.752;2023-05-21T21:19:50;99284.22;;;6.36;100.00
48352;BME280;34163;49.314;6.752;2023-05-21T21:22:15;99296.19;;;6.46;100.00
48352;BME280;34163;49.314;6.752;2023-05-21T21:24:42;99291.00;;;6.43;100.00
48352;BME280;34163;49.314;6.752;2023-05-21T21:27:07;99282.28;;;6.41;100.00
48352;BME280;34163;49.314;6.752;2023-05-21T21:29:32;99285.22;;;6.33;100.00
48352;BME280;34163;49.314;6.752;2023-05-21T21:31:58;99285.31;;;6.30;100.00
48352;BME280;34163;49.314;6.752;2023-05-21T21:34:23;99287.72;;;6.36;100.00
48352;BME280;34163;49.314;6.752;2023-05-21T21:36:49;99286.81;;;6.38;100.00
48352;BME280;34163;49.314;6.752;2023-05-21T21:39:15;99290.34;;;6.36;100.00
48352;BME280;34163;49.314;6.752;2023-05-21T21:41:41;99288.63;;;6.35;100.00
48352;BME280;34163;49.314;6.752;2023-05-21T21:44:06;99286.81;;;6.38;100.00
48352;BME280;34163;49.314;6.752;2023-05-21T21:46:32;99288.03;;;6.27;100.00
48352;BME280;34163;49.314;6.752;2023-05-21T21:48:57;99285.97;;;6.37;100.00
48352;BME280;34163;49.314;6.752;2023-05-21T21:51:22;99286.06;;;6.34;100.00
48352;BME280;34163;49.314;6.752;2023-05-21T21:53:47;99282.56;;;6.33;100.00
48352;BME280;34163;49.314;6.752;2023-05-21T21:56:13;99286.34;;;6.25;100.00
48352;BME280;34163;49.314;6.752;2023-05-21T21:58:38;99290.47;;;6.33;100.00
48352;BME280;34163;49.314;6.752;2023-05-21T22:01:03;99283.28;;;6.39;100.00
48352;BME280;34163;49.314;6.752;2023-05-21T22:03:31;99283.28;;;6.39;100.00
48352;BME280;34163;49.314;6.752;2023-05-21T22:05:56;99285.97;;;6.37;100.00
48352;BME280;34163;49.314;6.752;2023-05-21T22:08:22;99286.00;;;6.35;100.00
48352;BME280;34163;49.314;6.752;2023-05-21T22:10:47;99290.38;;;6.35;100.00
48352;BME280;34163;49.314;6.752;2023-05-21T22:13:12;99293.91;;;6.35;100.00
48352;BME280;34163;49.314;6.752;2023-05-21T22:15:38;99288.03;;;6.27;100.00
48352;BME280;34163;49.314;6.752;2023-05-21T22:18:03;99292.31;;;6.30;100.00
48352;BME280;34163;49.314;6.752;2023-05-21T22:20:29;99288.75;;;6.32;100.00
48352;BME280;34163;49.314;6.752;2023-05-21T22:22:55;99289.50;;;6.36;100.00
48352;BME280;34163;49.314;6.752;2023-05-21T22:25:20;99298.06;;;6.16;100.00
48352;BME280;34163;49.314;6.752;2023-05-21T22:27:45;99290.66;;;6.27;100.00
48352;BME280;34163;49.314;6.752;2023-05-21T22:30:11;99297.44;;;6.34;100.00
48352;BME280;34163;49.314;6.752;2023-05-21T22:32:36;99303.53;;;6.35;100.00
48352;BME280;34163;49.314;6.752;2023-05-21T22:35:01;99296.53;;;6.35;100.00
48352;BME280;34163;49.314;6.752;2023-05-21T22:37:27;99297.59;;;6.30;100.00
48352;BME280;34163;49.314;6.752;2023-05-21T22:39:52;99301.69;;;6.39;100.00
48352;BME280;34163;49.314;6.752;2023-05-21T22:42:17;99297.22;;;6.41;100.00
48352;BME280;34163;49.314;6.752;2023-05-21T22:44:42;99292.88;;;6.40;100.00
48352;BME280;34163;49.314;6.752;2023-05-21T22:47:08;99296.44;;;6.39;100.00
48352;BME280;34163;49.314;6.752;2023-05-21T22:49:34;99297.97;;;6.44;100.00
48352;BME280;34163;49.314;6.752;2023-05-21T22:51:59;99290.22;;;6.40;100.00
48352;BME280;34163;49.314;6.752;2023-05-21T22:54:31;99295.59;;;6.36;100.00
48352;BME280;34163;49.314;6.752;2023-05-21T22:56:57;99294.59;;;6.41;100.00
48352;BME280;34163;49.314;6.752;2023-05-21T22:59:22;99288.34;;;6.45;100.00
48352;BME280;34163;49.314;6.752;2023-05-21T23:01:48;99295.53;;;6.38;100.00
48352;BME280;34163;49.314;6.752;2023-05-21T23:04:13;99288.63;;;6.35;100.00
48352;BME280;34163;49.314;6.752;2023-05-21T23:06:39;99284.88;;;6.43;100.00
48352;BME280;34163;49.314;6.752;2023-05-21T23:09:04;99293.84;;;6.37;100.00
48352;BME280;34163;49.314;6.752;2023-05-21T23:11:30;99295.50;;;6.40;100.00
48352;BME280;34163;49.314;6.752;2023-05-21T23:13:55;99283.28;;;6.39;100.00
48352;BME280;34163;49.314;6.752;2023-05-21T23:16:20;99292.81;;;6.41;100.00
48352;BME280;34163;49.314;6.752;2023-05-21T23:18:46;99286.69;;;6.41;100.00
48352;BME280;34163;49.314;6.752;2023-05-21T23:21:13;99285.06;;;6.36;100.00
48352;BME280;34163;49.314;6.752;2023-05-21T23:23:39;99288.38;;;6.43;100.00
48352;BME280;34163;49.314;6.752;2023-05-21T23:26:04;99289.13;;;6.47;100.00
48352;BME280;34163;49.314;6.752;2023-05-21T23:28:29;99288.44;;;6.42;100.00
48352;BME280;34163;49.314;6.752;2023-05-21T23:30:54;99290.22;;;6.40;100.00
48352;BME280;34163;49.314;6.752;2023-05-21T23:33:20;99292.06;;;6.38;100.00
